Terminal Aerodrome Forecast
Issued by NWS

Home | Current Version | Previous Version | Text Only | Print | Product List | Glossary Off
Versions: 1 2 3 4 5 6 7 8 9 10 11 12 13 14

000
FTUS43 KICT 032328
TAFCNU
TAF
KCNU 032328Z 0400/0424 23005KT P6SM BKN060
     FM040600 28007KT P6SM SKC
     FM041300 33014KT P6SM SKC
     FM041500 36015G22KT P6SM SKC=

USA.gov is the U.S. government's official web portal to all federal, state and local government web resources and services.